Main page
METAR-TAF:

METAR-TAF

Airports :

DeLand Municipal Airport

DeLand, Florida, United States

latitude: 29-04-01N, longitude: 081-17-02W, elevation: 79 ft

Current weather observation

The report was made 15 minutes ago, at 13:55 UTC
Wind 21 mph from the East/Northeast with gusts up to 28 mph
Temperature 81°F
Humidity 62%
Pressure 30.11 in. Hg
Visibility: 10 miles
Broken clouds at a height of 3800 ft
Broken clouds at a height of 4700 ft
Broken clouds at a height of 6000 ft

METAR: KDED 211355Z AUTO 06018G24KT 10SM BKN038 BKN047 BKN060 27/19 A3011 RMK AO2 T02700194

Time: 10:10 (14:10 UTC)


TAF: missing

Weather observations and forecasts of more than 4000 airports (METAR and TAF reports).

The available stations are represented by yellow and red dots on the map.

Hover mouse over dot to see the name of the station.

Then click to see weather observations and forecasts.

To change the map : click on the green buttons with a black cross to zoom in, on the green button with a dash to zoom out, or on the green arrows for adjacent maps.


METAR-TAF: